sensor_id;sensor_type;location;lat;lon;timestamp;pressure;altitude;pressure_sealevel;temperature;humidity
51849;BME280;38952;51.090;-1.832;2024-03-23T00:55:34;100408.97;;;3.53;100.00
51849;BME280;38952;51.090;-1.832;2024-03-23T00:57:59;100404.19;;;3.55;100.00
51849;BME280;38952;51.090;-1.832;2024-03-23T01:00:25;100409.94;;;3.65;100.00
51849;BME280;38952;51.090;-1.832;2024-03-23T01:02:50;100401.75;;;3.72;100.00
51849;BME280;38952;51.090;-1.832;2024-03-23T01:05:15;100396.13;;;3.74;100.00
51849;BME280;38952;51.090;-1.832;2024-03-23T01:07:41;100385.75;;;3.71;100.00
51849;BME280;38952;51.090;-1.832;2024-03-23T01:10:06;100382.44;;;3.69;100.00
51849;BME280;38952;51.090;-1.832;2024-03-23T01:12:32;100379.53;;;3.70;100.00
51849;BME280;38952;51.090;-1.832;2024-03-23T01:14:57;100373.88;;;3.72;100.00
51849;BME280;38952;51.090;-1.832;2024-03-23T01:17:23;100370.16;;;3.73;100.00
51849;BME280;38952;51.090;-1.832;2024-03-23T01:19:48;100371.06;;;3.85;100.00
51849;BME280;38952;51.090;-1.832;2024-03-23T01:22:13;100358.19;;;3.80;100.00
51849;BME280;38952;51.090;-1.832;2024-03-23T01:24:42;100371.81;;;3.92;100.00
51849;BME280;38952;51.090;-1.832;2024-03-23T01:27:08;100375.16;;;3.94;100.00
51849;BME280;38952;51.090;-1.832;2024-03-23T01:29:34;100374.59;;;4.04;100.00
51849;BME280;38952;51.090;-1.832;2024-03-23T01:31:59;100368.28;;;4.10;100.00
51849;BME280;38952;51.090;-1.832;2024-03-23T01:34:24;100376.22;;;4.12;100.00
51849;BME280;38952;51.090;-1.832;2024-03-23T01:36:50;100369.91;;;4.18;100.00
51849;BME280;38952;51.090;-1.832;2024-03-23T01:39:16;100366.13;;;4.19;100.00
51849;BME280;38952;51.090;-1.832;2024-03-23T01:41:41;100370.66;;;4.25;100.00
51849;BME280;38952;51.090;-1.832;2024-03-23T01:44:08;100361.03;;;4.29;100.00
51849;BME280;38952;51.090;-1.832;2024-03-23T01:46:35;100363.88;;;4.34;100.00
51849;BME280;38952;51.090;-1.832;2024-03-23T01:49:01;100371.25;;;4.46;100.00
51849;BME280;38952;51.090;-1.832;2024-03-23T01:51:28;100358.75;;;4.45;100.00
51849;BME280;38952;51.090;-1.832;2024-03-23T01:53:56;100368.22;;;4.54;100.00
51849;BME280;38952;51.090;-1.832;2024-03-23T01:56:22;100346.19;;;4.50;100.00
51849;BME280;38952;51.090;-1.832;2024-03-23T01:58:47;100355.28;;;4.56;100.00
51849;BME280;38952;51.090;-1.832;2024-03-23T02:01:12;100354.66;;;4.54;100.00
51849;BME280;38952;51.090;-1.832;2024-03-23T02:03:38;100354.78;;;4.47;100.00
51849;BME280;38952;51.090;-1.832;2024-03-23T02:06:03;100355.31;;;4.37;100.00
51849;BME280;38952;51.090;-1.832;2024-03-23T02:08:30;100357.66;;;4.34;100.00
51849;BME280;38952;51.090;-1.832;2024-03-23T02:10:56;100351.09;;;4.23;100.00
51849;BME280;38952;51.090;-1.832;2024-03-23T02:13:21;100355.38;;;4.12;100.00
51849;BME280;38952;51.090;-1.832;2024-03-23T02:15:47;100340.41;;;4.10;100.00
51849;BME280;38952;51.090;-1.832;2024-03-23T02:18:13;100367.31;;;4.23;100.00
51849;BME280;38952;51.090;-1.832;2024-03-23T02:20:39;100352.16;;;4.22;100.00
51849;BME280;38952;51.090;-1.832;2024-03-23T02:23:05;100348.38;;;4.23;100.00
51849;BME280;38952;51.090;-1.832;2024-03-23T02:25:33;100350.22;;;4.29;100.00
51849;BME280;38952;51.090;-1.832;2024-03-23T02:27:59;100351.09;;;4.23;100.00
51849;BME280;38952;51.090;-1.832;2024-03-23T02:30:25;100355.97;;;4.33;100.00
51849;BME280;38952;51.090;-1.832;2024-03-23T02:32:51;100347.28;;;4.31;100.00
51849;BME280;38952;51.090;-1.832;2024-03-23T02:35:16;100339.28;;;4.36;100.00
51849;BME280;38952;51.090;-1.832;2024-03-23T02:37:46;100328.56;;;4.29;99.51
51849;BME280;38952;51.090;-1.832;2024-03-23T02:40:14;100347.63;;;4.34;99.75
51849;BME280;38952;51.090;-1.832;2024-03-23T02:42:40;100349.28;;;4.35;98.41
51849;BME280;38952;51.090;-1.832;2024-03-23T02:45:09;100351.03;;;4.30;99.14
51849;BME280;38952;51.090;-1.832;2024-03-23T02:47:34;100339.00;;;4.26;99.09
51849;BME280;38952;51.090;-1.832;2024-03-23T02:50:03;100343.13;;;4.28;99.37
51849;BME280;38952;51.090;-1.832;2024-03-23T02:52:29;100336.75;;;4.23;99.87
51849;BME280;38952;51.090;-1.832;2024-03-23T02:54:55;100326.88;;;4.28;100.00
51849;BME280;38952;51.090;-1.832;2024-03-23T02:57:21;100334.56;;;4.31;99.86
51849;BME280;38952;51.090;-1.832;2024-03-23T02:59:47;100340.72;;;4.39;99.65
51849;BME280;38952;51.090;-1.832;2024-03-23T03:02:13;100343.88;;;4.35;98.90
51849;BME280;38952;51.090;-1.832;2024-03-23T03:04:38;100340.41;;;4.28;99.40
51849;BME280;38952;51.090;-1.832;2024-03-23T03:07:04;100349.66;;;4.39;99.54
51849;BME280;38952;51.090;-1.832;2024-03-23T03:09:32;100347.34;;;4.43;98.51
51849;BME280;38952;51.090;-1.832;2024-03-23T03:12:02;100337.56;;;4.42;97.80
51849;BME280;38952;51.090;-1.832;2024-03-23T03:14:28;100352.13;;;4.41;98.15
51849;BME280;38952;51.090;-1.832;2024-03-23T03:16:54;100349.28;;;4.35;98.90
51849;BME280;38952;51.090;-1.832;2024-03-23T03:19:19;100347.03;;;4.32;99.28
51849;BME280;38952;51.090;-1.832;2024-03-23T03:21:48;100352.59;;;4.37;99.85
51849;BME280;38952;51.090;-1.832;2024-03-23T03:24:13;100352.22;;;4.34;98.96
51849;BME280;38952;51.090;-1.832;2024-03-23T03:26:41;100336.50;;;4.24;99.21
51849;BME280;38952;51.090;-1.832;2024-03-23T03:29:07;100312.53;;;4.09;99.81
51849;BME280;38952;51.090;-1.832;2024-03-23T03:31:35;100347.34;;;4.24;100.00
51849;BME280;38952;51.090;-1.832;2024-03-23T03:34:01;100346.59;;;4.17;99.90
51849;BME280;38952;51.090;-1.832;2024-03-23T03:36:27;100349.16;;;4.12;100.00
51849;BME280;38952;51.090;-1.832;2024-03-23T03:38:53;100345.38;;;4.13;100.00
51849;BME280;38952;51.090;-1.832;2024-03-23T03:41:18;100346.59;;;4.17;100.00
51849;BME280;38952;51.090;-1.832;2024-03-23T03:43:44;100333.34;;;4.09;100.00
51849;BME280;38952;51.090;-1.832;2024-03-23T03:46:12;100335.50;;;4.00;100.00
51849;BME280;38952;51.090;-1.832;2024-03-23T03:48:38;100336.38;;;4.00;100.00
51849;BME280;38952;51.090;-1.832;2024-03-23T03:51:06;100316.72;;;3.87;100.00
51849;BME280;38952;51.090;-1.832;2024-03-23T03:53:32;100327.63;;;3.98;100.00
51849;BME280;38952;51.090;-1.832;2024-03-23T03:56:01;100347.19;;;4.00;100.00
51849;BME280;38952;51.090;-1.832;2024-03-23T03:58:27;100331.41;;;3.97;100.00
51849;BME280;38952;51.090;-1.832;2024-03-23T04:00:52;100340.13;;;3.99;100.00
51849;BME280;38952;51.090;-1.832;2024-03-23T04:03:20;100327.94;;;3.90;100.00
51849;BME280;38952;51.090;-1.832;2024-03-23T04:05:53;100337.28;;;3.94;100.00
51849;BME280;38952;51.090;-1.832;2024-03-23T04:08:21;100326.88;;;3.91;100.00
51849;BME280;38952;51.090;-1.832;2024-03-23T04:10:47;100329.81;;;3.90;100.00
51849;BME280;38952;51.090;-1.832;2024-03-23T04:13:16;100336.88;;;3.91;100.00
51849;BME280;38952;51.090;-1.832;2024-03-23T04:15:41;100311.22;;;3.75;100.00
51849;BME280;38952;51.090;-1.832;2024-03-23T04:18:07;100329.88;;;3.83;100.00
51849;BME280;38952;51.090;-1.832;2024-03-23T04:20:33;100326.19;;;3.77;100.00
51849;BME280;38952;51.090;-1.832;2024-03-23T04:23:01;100325.19;;;3.72;100.00
51849;BME280;38952;51.090;-1.832;2024-03-23T04:25:27;100322.44;;;3.78;99.84
51849;BME280;38952;51.090;-1.832;2024-03-23T04:27:52;100327.78;;;3.85;98.32
51849;BME280;38952;51.090;-1.832;2024-03-23T04:30:18;100321.91;;;3.88;97.96
51849;BME280;38952;51.090;-1.832;2024-03-23T04:32:44;100319.59;;;3.92;97.56
51849;BME280;38952;51.090;-1.832;2024-03-23T04:35:10;100321.03;;;3.94;97.02
51849;BME280;38952;51.090;-1.832;2024-03-23T04:37:38;100318.91;;;3.96;97.05
51849;BME280;38952;51.090;-1.832;2024-03-23T04:40:06;100323.41;;;4.02;97.23
51849;BME280;38952;51.090;-1.832;2024-03-23T04:42:32;100324.69;;;4.00;97.08
51849;BME280;38952;51.090;-1.832;2024-03-23T04:44:58;100323.41;;;4.02;96.39
51849;BME280;38952;51.090;-1.832;2024-03-23T04:47:23;100330.09;;;4.00;96.65
51849;BME280;38952;51.090;-1.832;2024-03-23T04:49:48;100329.75;;;3.96;96.40
51849;BME280;38952;51.090;-1.832;2024-03-23T04:52:14;100310.63;;;3.91;97.08
51849;BME280;38952;51.090;-1.832;2024-03-23T04:54:40;100324.69;;;4.00;96.83
51849;BME280;38952;51.090;-1.832;2024-03-23T04:57:06;100312.66;;;3.77;97.46
51849;BME280;38952;51.090;-1.832;2024-03-23T04:59:32;100324.31;;;3.78;98.32
51849;BME280;38952;51.090;-1.832;2024-03-23T05:02:01;100332.41;;;3.78;98.60
51849;BME280;38952;51.090;-1.832;2024-03-23T05:04:28;100316.72;;;3.68;99.71
51849;BME280;38952;51.090;-1.832;2024-03-23T05:06:54;100323.91;;;3.56;100.00
51849;BME280;38952;51.090;-1.832;2024-03-23T05:09:20;100320.28;;;3.43;100.00
51849;BME280;38952;51.090;-1.832;2024-03-23T05:11:46;100307.06;;;3.28;100.00
51849;BME280;38952;51.090;-1.832;2024-03-23T05:14:15;100298.03;;;3.16;100.00
51849;BME280;38952;51.090;-1.832;2024-03-23T05:16:40;100310.53;;;3.10;100.00
51849;BME280;38952;51.090;-1.832;2024-03-23T05:19:06;100315.13;;;3.10;100.00
51849;BME280;38952;51.090;-1.832;2024-03-23T05:21:31;100297.28;;;3.02;100.00
51849;BME280;38952;51.090;-1.832;2024-03-23T05:23:56;100304.84;;;2.93;100.00
51849;BME280;38952;51.090;-1.832;2024-03-23T05:26:22;100295.97;;;2.86;100.00
51849;BME280;38952;51.090;-1.832;2024-03-23T05:28:48;100299.38;;;2.75;100.00
51849;BME280;38952;51.090;-1.832;2024-03-23T05:31:25;100300.50;;;2.60;100.00
51849;BME280;38952;51.090;-1.832;2024-03-23T05:33:51;100290.34;;;2.56;100.00
51849;BME280;38952;51.090;-1.832;2024-03-23T05:36:17;100292.25;;;2.49;100.00
51849;BME280;38952;51.090;-1.832;2024-03-23T05:38:43;100285.47;;;2.33;100.00
51849;BME280;38952;51.090;-1.832;2024-03-23T05:41:08;100294.00;;;2.30;100.00
51849;BME280;38952;51.090;-1.832;2024-03-23T05:43:33;100288.25;;;2.19;100.00
51849;BME280;38952;51.090;-1.832;2024-03-23T05:46:00;100301.09;;;2.24;100.00
51849;BME280;38952;51.090;-1.832;2024-03-23T05:48:26;100298.59;;;2.22;100.00
51849;BME280;38952;51.090;-1.832;2024-03-23T05:50:52;100288.25;;;2.19;100.00
51849;BME280;38952;51.090;-1.832;2024-03-23T05:53:19;100296.34;;;2.19;100.00
51849;BME280;38952;51.090;-1.832;2024-03-23T05:55:48;100289.47;;;2.23;100.00
51849;BME280;38952;51.090;-1.832;2024-03-23T05:58:15;100285.31;;;2.21;100.00
51849;BME280;38952;51.090;-1.832;2024-03-23T06:00:41;100259.66;;;2.05;100.00
51849;BME280;38952;51.090;-1.832;2024-03-23T06:03:08;100288.25;;;2.13;100.00
51849;BME280;38952;51.090;-1.832;2024-03-23T06:05:33;100286.38;;;2.13;100.00
51849;BME280;38952;51.090;-1.832;2024-03-23T06:07:59;100294.47;;;2.13;100.00
51849;BME280;38952;51.090;-1.832;2024-03-23T06:10:24;100273.75;;;2.07;100.00
51849;BME280;38952;51.090;-1.832;2024-03-23T06:12:49;100284.09;;;2.17;100.00
51849;BME280;38952;51.090;-1.832;2024-03-23T06:15:18;100270.03;;;2.08;100.00
51849;BME280;38952;51.090;-1.832;2024-03-23T06:17:43;100274.97;;;2.11;100.00
51849;BME280;38952;51.090;-1.832;2024-03-23T06:20:11;100274.16;;;2.11;100.00
51849;BME280;38952;51.090;-1.832;2024-03-23T06:22:38;100278.28;;;2.13;100.00
51849;BME280;38952;51.090;-1.832;2024-03-23T06:25:03;100277.44;;;2.19;100.00
51849;BME280;38952;51.090;-1.832;2024-03-23T06:27:29;100272.41;;;2.30;100.00
51849;BME280;38952;51.090;-1.832;2024-03-23T06:29:54;100265.13;;;2.30;100.00
51849;BME280;38952;51.090;-1.832;2024-03-23T06:32:20;100266.16;;;2.36;100.00
51849;BME280;38952;51.090;-1.832;2024-03-23T06:34:45;100260.69;;;2.49;100.00
51849;BME280;38952;51.090;-1.832;2024-03-23T06:37:11;100254.41;;;2.55;100.00
51849;BME280;38952;51.090;-1.832;2024-03-23T06:39:37;100267.84;;;2.69;100.00
51849;BME280;38952;51.090;-1.832;2024-03-23T06:42:02;100270.25;;;2.77;100.00
51849;BME280;38952;51.090;-1.832;2024-03-23T06:44:28;100270.78;;;2.92;100.00
51849;BME280;38952;51.090;-1.832;2024-03-23T06:46:54;100275.53;;;2.97;100.00
51849;BME280;38952;51.090;-1.832;2024-03-23T06:49:37;100254.75;;;2.97;100.00
51849;BME280;38952;51.090;-1.832;2024-03-23T06:52:06;100249.84;;;3.13;100.00
51849;BME280;38952;51.090;-1.832;2024-03-23T06:54:31;100258.00;;;3.31;100.00
51849;BME280;38952;51.090;-1.832;2024-03-23T06:56:57;100257.41;;;3.48;100.00
51849;BME280;38952;51.090;-1.832;2024-03-23T06:59:22;100257.44;;;3.66;100.00
51849;BME280;38952;51.090;-1.832;2024-03-23T07:01:47;100259.56;;;3.83;100.00
51849;BME280;38952;51.090;-1.832;2024-03-23T07:04:15;100263.31;;;4.00;100.00
51849;BME280;38952;51.090;-1.832;2024-03-23T07:06:44;100247.47;;;4.16;100.00
51849;BME280;38952;51.090;-1.832;2024-03-23T07:09:09;100246.13;;;4.25;100.00
51849;BME280;38952;51.090;-1.832;2024-03-23T07:11:38;100225.38;;;4.19;100.00
51849;BME280;38952;51.090;-1.832;2024-03-23T07:14:03;100241.47;;;4.32;100.00
51849;BME280;38952;51.090;-1.832;2024-03-23T07:16:29;100223.56;;;4.31;100.00
51849;BME280;38952;51.090;-1.832;2024-03-23T07:18:54;100218.91;;;4.50;100.00
51849;BME280;38952;51.090;-1.832;2024-03-23T07:21:20;100211.97;;;4.54;100.00
51849;BME280;38952;51.090;-1.832;2024-03-23T07:23:48;100197.28;;;4.62;100.00
51849;BME280;38952;51.090;-1.832;2024-03-23T07:26:14;100215.69;;;4.84;100.00
51849;BME280;38952;51.090;-1.832;2024-03-23T07:28:40;100210.75;;;4.93;100.00
51849;BME280;38952;51.090;-1.832;2024-03-23T07:31:13;100203.59;;;4.98;100.00
51849;BME280;38952;51.090;-1.832;2024-03-23T07:33:49;100213.97;;;5.13;100.00
51849;BME280;38952;51.090;-1.832;2024-03-23T07:36:15;100210.78;;;5.28;100.00
51849;BME280;38952;51.090;-1.832;2024-03-23T07:38:41;100218.19;;;5.45;100.00
51849;BME280;38952;51.090;-1.832;2024-03-23T07:43:32;100210.97;;;5.62;97.38
51849;BME280;38952;51.090;-1.832;2024-03-23T07:46:07;100230.31;;;5.66;96.75
51849;BME280;38952;51.090;-1.832;2024-03-23T07:48:33;100225.59;;;5.73;97.71
51849;BME280;38952;51.090;-1.832;2024-03-23T07:51:07;100231.00;;;5.85;96.96
51849;BME280;38952;51.090;-1.832;2024-03-23T07:53:34;100225.25;;;6.22;95.55
51849;BME280;38952;51.090;-1.832;2024-03-23T07:56:06;100219.72;;;6.45;93.63
51849;BME280;38952;51.090;-1.832;2024-03-23T07:58:31;100215.41;;;6.33;90.18
51849;BME280;38952;51.090;-1.832;2024-03-23T08:01:04;100212.34;;;6.29;91.44
51849;BME280;38952;51.090;-1.832;2024-03-23T08:03:30;100209.13;;;6.32;91.72
51849;BME280;38952;51.090;-1.832;2024-03-23T08:05:56;100217.13;;;6.85;90.18
51849;BME280;38952;51.090;-1.832;2024-03-23T08:08:25;100212.16;;;7.72;85.58
51849;BME280;38952;51.090;-1.832;2024-03-23T08:10:51;100184.59;;;8.62;79.30
51849;BME280;38952;51.090;-1.832;2024-03-23T08:16:11;100205.31;;;10.90;66.18
51849;BME280;38952;51.090;-1.832;2024-03-23T08:18:46;100234.72;;;11.86;62.09
51849;BME280;38952;51.090;-1.832;2024-03-23T08:21:11;100227.69;;;12.74;58.55
51849;BME280;38952;51.090;-1.832;2024-03-23T08:23:40;100215.38;;;13.65;55.35
51849;BME280;38952;51.090;-1.832;2024-03-23T08:26:13;100217.84;;;14.15;53.08
51849;BME280;38952;51.090;-1.832;2024-03-23T08:28:41;100223.56;;;14.95;50.29
51849;BME280;38952;51.090;-1.832;2024-03-23T08:31:11;100216.78;;;15.53;49.11
51849;BME280;38952;51.090;-1.832;2024-03-23T08:33:40;100213.06;;;15.91;47.11
51849;BME280;38952;51.090;-1.832;2024-03-23T08:36:11;100229.28;;;15.92;45.87
51849;BME280;38952;51.090;-1.832;2024-03-23T08:38:46;100218.31;;;16.29;45.41
51849;BME280;38952;51.090;-1.832;2024-03-23T08:41:14;100202.78;;;16.33;45.42
51849;BME280;38952;51.090;-1.832;2024-03-23T08:43:40;100210.28;;;16.78;43.62
51849;BME280;38952;51.090;-1.832;2024-03-23T08:46:09;100217.19;;;17.03;43.48
51849;BME280;38952;51.090;-1.832;2024-03-23T08:48:42;100197.69;;;18.11;41.93
51849;BME280;38952;51.090;-1.832;2024-03-23T08:51:09;100205.06;;;18.77;39.35
51849;BME280;38952;51.090;-1.832;2024-03-23T08:53:38;100208.34;;;19.61;38.53
51849;BME280;38952;51.090;-1.832;2024-03-23T08:56:09;100180.66;;;20.97;36.63
51849;BME280;38952;51.090;-1.832;2024-03-23T08:58:39;100197.75;;;20.65;36.22
51849;BME280;38952;51.090;-1.832;2024-03-23T09:01:10;100209.16;;;20.72;35.91
51849;BME280;38952;51.090;-1.832;2024-03-23T09:14:16;100159.88;;;20.82;34.37
51849;BME280;38952;51.090;-1.832;2024-03-23T09:16:41;100164.13;;;19.56;35.15
51849;BME280;38952;51.090;-1.832;2024-03-23T09:19:09;100175.94;;;19.44;36.29
51849;BME280;38952;51.090;-1.832;2024-03-23T09:21:34;100177.25;;;19.38;36.36
51849;BME280;38952;51.090;-1.832;2024-03-23T09:24:10;100140.22;;;18.95;36.54
51849;BME280;38952;51.090;-1.832;2024-03-23T09:26:38;100184.16;;;20.00;36.34
51849;BME280;38952;51.090;-1.832;2024-03-23T09:29:03;100196.81;;;19.42;35.98
51849;BME280;38952;51.090;-1.832;2024-03-23T09:31:29;100184.47;;;17.90;38.74
51849;BME280;38952;51.090;-1.832;2024-03-23T09:33:59;100174.44;;;18.47;39.16
51849;BME280;38952;51.090;-1.832;2024-03-23T09:36:24;100160.03;;;17.92;38.74
51849;BME280;38952;51.090;-1.832;2024-03-23T09:38:52;100168.59;;;15.64;42.35
51849;BME280;38952;51.090;-1.832;2024-03-23T09:41:18;100179.78;;;14.41;45.40
51849;BME280;38952;51.090;-1.832;2024-03-23T09:43:43;100161.75;;;15.34;44.57
51849;BME280;38952;51.090;-1.832;2024-03-23T09:46:17;100168.19;;;15.29;44.34
51849;BME280;38952;51.090;-1.832;2024-03-23T09:48:48;100135.38;;;16.48;42.77
51849;BME280;38952;51.090;-1.832;2024-03-23T10:27:44;100108.69;;;14.68;41.56
51849;BME280;38952;51.090;-1.832;2024-03-23T10:30:31;100094.69;;;14.31;42.86
51849;BME280;38952;51.090;-1.832;2024-03-23T10:33:32;100078.41;;;15.14;41.12
51849;BME280;38952;51.090;-1.832;2024-03-23T10:36:00;100126.31;;;14.47;41.46
51849;BME280;38952;51.090;-1.832;2024-03-23T10:38:34;100092.16;;;12.75;47.72
51849;BME280;38952;51.090;-1.832;2024-03-23T10:41:02;100076.00;;;11.55;52.72
51849;BME280;38952;51.090;-1.832;2024-03-23T10:43:29;100084.38;;;10.11;57.93
51849;BME280;38952;51.090;-1.832;2024-03-23T10:45:59;100082.03;;;8.93;65.67
51849;BME280;38952;51.090;-1.832;2024-03-23T10:48:33;100084.66;;;7.85;78.64
51849;BME280;38952;51.090;-1.832;2024-03-23T10:50:59;100114.00;;;7.34;88.66
51849;BME280;38952;51.090;-1.832;2024-03-23T10:53:28;100113.13;;;6.89;93.47
51849;BME280;38952;51.090;-1.832;2024-03-23T10:55:57;100086.47;;;6.35;97.07
51849;BME280;38952;51.090;-1.832;2024-03-23T10:58:30;100097.53;;;6.34;100.00
51849;BME280;38952;51.090;-1.832;2024-03-23T11:00:59;100087.34;;;6.58;100.00
51849;BME280;38952;51.090;-1.832;2024-03-23T11:03:36;100070.16;;;8.07;100.00
51849;BME280;38952;51.090;-1.832;2024-03-23T11:06:05;100067.50;;;10.35;88.36
51849;BME280;38952;51.090;-1.832;2024-03-23T11:08:35;100078.94;;;10.73;75.55
51849;BME280;38952;51.090;-1.832;2024-03-23T11:11:23;100057.63;;;10.08;76.15
51849;BME280;38952;51.090;-1.832;2024-03-23T11:13:54;100048.38;;;10.40;75.88
51849;BME280;38952;51.090;-1.832;2024-03-23T11:16:30;100050.97;;;15.74;55.37
51849;BME280;38952;51.090;-1.832;2024-03-23T11:25:03;100038.00;;;15.38;47.57
51849;BME280;38952;51.090;-1.832;2024-03-23T11:27:29;100047.06;;;12.87;52.50
51849;BME280;38952;51.090;-1.832;2024-03-23T11:32:37;100062.84;;;8.40;83.64
51849;BME280;38952;51.090;-1.832;2024-03-23T11:35:06;100060.41;;;8.11;91.82
51849;BME280;38952;51.090;-1.832;2024-03-23T11:37:31;100061.34;;;7.95;92.95
51849;BME280;38952;51.090;-1.832;2024-03-23T11:39:57;100040.44;;;8.33;94.24
51849;BME280;38952;51.090;-1.832;2024-03-23T11:42:25;100047.16;;;10.97;89.89
51849;BME280;38952;51.090;-1.832;2024-03-23T11:44:53;100038.19;;;15.13;70.82
51849;BME280;38952;51.090;-1.832;2024-03-23T11:47:21;100037.81;;;16.75;56.91
51849;BME280;38952;51.090;-1.832;2024-03-23T11:49:48;100034.63;;;15.27;54.95
51849;BME280;38952;51.090;-1.832;2024-03-23T11:52:15;100062.34;;;12.93;56.94
51849;BME280;38952;51.090;-1.832;2024-03-23T11:54:41;100041.00;;;11.37;62.24
51849;BME280;38952;51.090;-1.832;2024-03-23T11:57:09;100038.25;;;10.40;64.92
51849;BME280;38952;51.090;-1.832;2024-03-23T12:02:37;100016.84;;;10.78;62.43
51849;BME280;38952;51.090;-1.832;2024-03-23T12:12:51;99981.09;;;8.40;78.35
51849;BME280;38952;51.090;-1.832;2024-03-23T12:19:05;99994.84;;;6.47;97.55
51849;BME280;38952;51.090;-1.832;2024-03-23T12:21:31;100055.16;;;6.50;100.00
51849;BME280;38952;51.090;-1.832;2024-03-23T12:23:56;100004.56;;;6.09;100.00
51849;BME280;38952;51.090;-1.832;2024-03-23T12:26:35;100034.50;;;6.15;100.00
51849;BME280;38952;51.090;-1.832;2024-03-23T12:29:08;99990.84;;;5.70;100.00
51849;BME280;38952;51.090;-1.832;2024-03-23T12:32:06;100014.75;;;6.02;100.00
51849;BME280;38952;51.090;-1.832;2024-03-23T12:35:00;99975.75;;;5.91;100.00
51849;BME280;38952;51.090;-1.832;2024-03-23T12:37:46;100022.16;;;6.41;100.00
51849;BME280;38952;51.090;-1.832;2024-03-23T12:40:15;99995.00;;;7.02;100.00
51849;BME280;38952;51.090;-1.832;2024-03-23T12:42:41;99973.41;;;9.64;96.06
51849;BME280;38952;51.090;-1.832;2024-03-23T12:45:07;99971.19;;;14.90;66.56
51849;BME280;38952;51.090;-1.832;2024-03-23T12:51:02;99975.31;;;20.70;41.58
51849;BME280;38952;51.090;-1.832;2024-03-23T12:56:31;99932.31;;;25.70;31.52
51849;BME280;38952;51.090;-1.832;2024-03-23T12:59:00;99949.22;;;26.97;28.36
51849;BME280;38952;51.090;-1.832;2024-03-23T13:13:04;99905.78;;;18.73;38.26
51849;BME280;38952;51.090;-1.832;2024-03-23T13:18:33;99936.88;;;22.79;31.46
51849;BME280;38952;51.090;-1.832;2024-03-23T13:21:04;99913.13;;;23.76;30.03
51849;BME280;38952;51.090;-1.832;2024-03-23T13:23:43;99917.78;;;24.54;28.57
51849;BME280;38952;51.090;-1.832;2024-03-23T13:26:13;99884.06;;;23.38;28.53
51849;BME280;38952;51.090;-1.832;2024-03-23T13:28:47;99884.75;;;20.32;32.54
51849;BME280;38952;51.090;-1.832;2024-03-23T13:31:12;99927.03;;;17.52;37.70
51849;BME280;38952;51.090;-1.832;2024-03-23T13:33:38;99936.13;;;17.17;39.62
51849;BME280;38952;51.090;-1.832;2024-03-23T13:36:04;99934.84;;;19.69;35.86
51849;BME280;38952;51.090;-1.832;2024-03-23T13:42:03;99943.78;;;15.72;36.63
51849;BME280;38952;51.090;-1.832;2024-03-23T13:52:49;99882.75;;;10.18;50.23
51849;BME280;38952;51.090;-1.832;2024-03-23T13:59:27;99884.16;;;9.74;60.07
51849;BME280;38952;51.090;-1.832;2024-03-23T14:02:04;99953.03;;;13.24;49.95
51849;BME280;38952;51.090;-1.832;2024-03-23T14:04:35;99908.69;;;14.91;45.03
51849;BME280;38952;51.090;-1.832;2024-03-23T14:11:06;99944.13;;;15.34;44.25
51849;BME280;38952;51.090;-1.832;2024-03-23T14:13:42;99942.75;;;14.95;43.96
51849;BME280;38952;51.090;-1.832;2024-03-23T14:16:30;99916.28;;;17.15;41.08
51849;BME280;38952;51.090;-1.832;2024-03-23T14:19:06;99911.59;;;19.61;36.09
51849;BME280;38952;51.090;-1.832;2024-03-23T14:21:53;99920.88;;;21.72;33.53
51849;BME280;38952;51.090;-1.832;2024-03-23T14:24:43;99925.25;;;21.85;31.25
51849;BME280;38952;51.090;-1.832;2024-03-23T14:27:30;99925.41;;;22.21;31.86
51849;BME280;38952;51.090;-1.832;2024-03-23T14:30:28;99917.03;;;22.65;30.92
51849;BME280;38952;51.090;-1.832;2024-03-23T14:32:54;99871.03;;;23.85;30.06
51849;BME280;38952;51.090;-1.832;2024-03-23T14:35:19;99909.78;;;25.59;27.34
51849;BME280;38952;51.090;-1.832;2024-03-23T14:37:45;99909.75;;;24.99;26.67
51849;BME280;38952;51.090;-1.832;2024-03-23T14:40:17;99876.69;;;23.49;27.58
51849;BME280;38952;51.090;-1.832;2024-03-23T14:42:43;99867.97;;;22.44;28.46
51849;BME280;38952;51.090;-1.832;2024-03-23T14:45:26;99895.88;;;21.59;30.15
51849;BME280;38952;51.090;-1.832;2024-03-23T14:47:56;99872.19;;;19.89;33.14
51849;BME280;38952;51.090;-1.832;2024-03-23T14:50:58;99859.63;;;21.43;32.75
51849;BME280;38952;51.090;-1.832;2024-03-23T14:53:32;99844.03;;;22.11;30.43
51849;BME280;38952;51.090;-1.832;2024-03-23T14:56:16;99879.91;;;21.85;30.62
51849;BME280;38952;51.090;-1.832;2024-03-23T14:58:52;99892.75;;;23.01;29.65
51849;BME280;38952;51.090;-1.832;2024-03-23T15:01:18;99870.03;;;24.16;28.51
51849;BME280;38952;51.090;-1.832;2024-03-23T15:03:51;99890.09;;;20.99;30.43
51849;BME280;38952;51.090;-1.832;2024-03-23T15:06:29;99886.06;;;17.10;36.69
51849;BME280;38952;51.090;-1.832;2024-03-23T15:09:04;99896.28;;;15.30;40.16
51849;BME280;38952;51.090;-1.832;2024-03-23T15:11:36;99887.06;;;13.49;42.20
51849;BME280;38952;51.090;-1.832;2024-03-23T15:14:02;99898.94;;;12.33;44.68
51849;BME280;38952;51.090;-1.832;2024-03-23T15:16:38;99879.06;;;11.19;47.03
51849;BME280;38952;51.090;-1.832;2024-03-23T15:19:03;99855.06;;;10.51;50.15
51849;BME280;38952;51.090;-1.832;2024-03-23T15:21:31;99889.53;;;10.46;51.40
51849;BME280;38952;51.090;-1.832;2024-03-23T15:23:57;99892.13;;;12.55;49.31
51849;BME280;38952;51.090;-1.832;2024-03-23T15:26:44;99885.19;;;16.43;39.10
51849;BME280;38952;51.090;-1.832;2024-03-23T15:32:12;99895.47;;;18.44;35.67
51849;BME280;38952;51.090;-1.832;2024-03-23T15:34:48;99882.09;;;19.57;33.60
51849;BME280;38952;51.090;-1.832;2024-03-23T15:37:13;99849.13;;;20.47;32.29
51849;BME280;38952;51.090;-1.832;2024-03-23T15:40:02;99903.75;;;20.55;32.34
51849;BME280;38952;51.090;-1.832;2024-03-23T15:42:41;99881.50;;;17.67;35.58
51849;BME280;38952;51.090;-1.832;2024-03-23T15:48:07;99867.78;;;15.34;42.43